Yakima, WA (98909)

12:31 AM PDT on August 31, 2014 (GMT -0700)
CWOP-EW4092 | Change Station
CLOSE
Current Station
Personal Weather Station
Location: Yakima, WA
Elevation: 1106 ft
Nearby Weather Stations

Elev 1106 ft 46.58 °N, 120.56 °W | Updated 9 minutes ago

Clear
Clear
60.9 °F
Feels Like 60.9 °F
N
6.0
Wind Variable Wind from South
Gusts 7.0 mph

Today
High -- | Low -- °F
--% Chance of Precip.
Yesterday
High -- | Low -- °F
Precip. -- in
6:21 AM 7:43 PM
Waxing Crescent, 28% visible
Pressure 29.88 in
Visibility 10.0 miles
Clouds Clear
Dew Point 47 °F
Humidity 61%
Rainfall 0.00 in
Snow Depth Not available.
UV 0 out of 12
Pollen 4.50 out of 12
Air Quality Not available.
Flu Activity Not available.
METAR KYKM 310653Z AUTO 33011KT 10SM CLR 17/07 A2990 RMK AO2 SLP119 T01720072

More Conditions Fewer Conditions

Pressure 29.88 in
Visibility 10.0 miles
Clouds Clear
Dew Point 47 °F
Humidity 61%
Rainfall 0.00 in
Snow Depth Not available.
UV 0 out of 12
Pollen 4.50 out of 12
Air Quality Not available.
Flu Activity Not available.
METAR KYKM 310653Z AUTO 33011KT 10SM CLR 17/07 A2990 RMK AO2 SLP119 T01720072

More Conditions Fewer Conditions

10-Day Weather Forecast

Almanac

Astronomy

Aug. 31, 2014 Rise Set
Actual Time 6:21 AM PDT 7:43 PM PDT
Civil Twilight 5:50 AM PDT 8:14 PM PDT
Nautical Twilight 5:12 AM PDT 8:52 PM PDT
Astronomical Twilight 4:31 AM PDT 9:32 PM PDT
Moon 12:35 PM PDT 10:39 PM PDT
Length of Visible Light 14h 24m
Length of Day
13h 21m
Tomorrow will be 3m 10s shorter.
Waxing Crescent, 28% of the Moon is Illuminated
Today
Waxing Crescent
Sep 2
First Quarter
Sep 8
Full
Sep 15
Last Quarter
Sep 24
New

Community

WunderPhotos

Upload Photos

1,748,809 photos uploaded!

Nearby

Snow Depth

Station Depth Elevation
Green Lake 0 in 6000 ft
Lost Horse 0 in 5000 ft
White Pass E.S. 0 in 4500 ft
Pigtail Peak 0 in 5900 ft
Potato Hill 0 in 4500 ft

Earthquake Activity

City Distance Mag. Time & Date
No recent earthquake activity has been reported nearby.
Minimum magnitude displayed is 2.5.

Coastal Water Temperatures

Place Temperature
No Stations Reporting

Nearby Weather Stations